Αρχική σελίδα
METAR-TAF:

METAR-TAF

Αεροδρόμια :

Αμμάν, Ιορδανία

γεωγραφικό πλάτος: 31-59N, γεωγραφικό μήκος: 035-59E, υψόμετρο: 767 μ

Παρών καιρός

Η αναφορά έγινε 1 ώρα και 19 λεπτά πριν, στις 03:00 UTC
Ήπιος άνεμος
Θερμοκρασία 19°C
Υγρασία 64%
Πίεση 1017 hPa
Ορατότητα: 5000 μ
καταχνιά

METAR: OJAM 230300Z 00000KT 5000 HZ NSC 19/12 Q1017 NOSIG

Χρόνος: 07:19 (04:19 UTC)

Πρόγνωση Καιρού

Η αναφορά έγινε 6 ώρες και 18 λεπτά πριν, στις 22:01 UTC
Η πρόγνωση ισχύει από τις 23 στις 00 UTC έως τις 24 στις 06 UTC
Άνεμος 2 kt από μεταβλητές κατευθύνσεις
Ορατότητα: 6000 μ
Προσωρινά
από 23 στις 02 UTC έως τις 23 στις 07 UTC
Ορατότητα: 4000 μ
καπνός
Καθιστάμενος
από 23 στις 07 UTC έως τις 23 στις 09 UTC
Άνεμος 12 kt από Δ/BΔ
Ορατότητα: 5000 μ
καταχνιά

TAF: OJAM 222201Z 2300/2406 VRB02KT 6000 NSC TEMPO 2302/2307 4000 FU BECMG 2307/2309 30012KT 5000 HZ

Μετεωρολογικές αναφορές και προγνώσεις για περισσότερα από 4000 αεροδρόμια (δελτία METAR και TAF).

Οι διαθέσιμοι σταθμοί απεικονίζονται στο χάρτη με κίτρινες και κόκκινες κουκκίδες.

Μετακινήστε το ποντίκι πάνω από τις κουκκίδες για να δείτε το όνομα του σταθμού.

Στη συνέχεια, κάντε κλικ για να δείτε τις μετεωρολογικές αναφορές και τις προγνώσεις καιρού.

Για να αλλάξετε το χάρτη: κάντε κλικ στα πράσινα κουμπιά με τον μαύρο σταυρό για να ζουμάρετε, στο πράσινο κουμπί με την παύλα για να αφαιρέσετε το ζουμ ή στα πράσινα βέλη για να αντιπαραβάλλετε χάρτες.


METAR-TAF: